sensor_id;sensor_type;location;lat;lon;timestamp;pressure;altitude;pressure_sealevel;temperature;humidity
77086;BME280;66014;53.134;18.006;2023-04-03T00:01:21;102210.55;;;1.27;63.42
77086;BME280;66014;53.134;18.006;2023-04-03T00:03:49;102212.42;;;1.24;63.36
77086;BME280;66014;53.134;18.006;2023-04-03T00:06:28;102211.17;;;1.22;63.62
77086;BME280;66014;53.134;18.006;2023-04-03T00:09:02;102214.00;;;1.21;63.58
77086;BME280;66014;53.134;18.006;2023-04-03T00:11:29;102211.45;;;1.20;63.58
77086;BME280;66014;53.134;18.006;2023-04-03T00:14:09;102210.48;;;1.18;63.70
77086;BME280;66014;53.134;18.006;2023-04-03T00:16:41;102208.73;;;1.18;63.74
77086;BME280;66014;53.134;18.006;2023-04-03T00:19:26;102210.68;;;1.18;63.46
77086;BME280;66014;53.134;18.006;2023-04-03T00:22:11;102206.51;;;1.17;63.62
77086;BME280;66014;53.134;18.006;2023-04-03T00:24:37;102204.11;;;1.16;63.81
77086;BME280;66014;53.134;18.006;2023-04-03T00:27:05;102204.33;;;1.15;63.59
77086;BME280;66014;53.134;18.006;2023-04-03T00:29:31;102203.65;;;1.16;63.76
77086;BME280;66014;53.134;18.006;2023-04-03T00:31:58;102201.59;;;1.14;63.88
77086;BME280;66014;53.134;18.006;2023-04-03T00:34:25;102202.23;;;1.12;63.69
77086;BME280;66014;53.134;18.006;2023-04-03T00:36:51;102201.65;;;1.10;63.82
77086;BME280;66014;53.134;18.006;2023-04-03T00:39:19;102204.95;;;1.07;63.83
77086;BME280;66014;53.134;18.006;2023-04-03T00:41:45;102201.03;;;1.05;63.96
77086;BME280;66014;53.134;18.006;2023-04-03T00:44:20;102200.83;;;1.02;63.95
77086;BME280;66014;53.134;18.006;2023-04-03T00:46:46;102202.34;;;1.00;63.90
77086;BME280;66014;53.134;18.006;2023-04-03T00:49:13;102207.19;;;0.98;64.31
77086;BME280;66014;53.134;18.006;2023-04-03T00:51:44;102209.90;;;0.96;64.18
77086;BME280;66014;53.134;18.006;2023-04-03T00:54:11;102209.12;;;0.94;64.42
77086;BME280;66014;53.134;18.006;2023-04-03T00:56:38;102208.83;;;0.93;64.29
77086;BME280;66014;53.134;18.006;2023-04-03T00:59:19;102206.98;;;0.92;64.40
77086;BME280;66014;53.134;18.006;2023-04-03T01:01:49;102208.69;;;0.89;64.18
77086;BME280;66014;53.134;18.006;2023-04-03T01:04:37;102208.65;;;0.86;64.53
77086;BME280;66014;53.134;18.006;2023-04-03T01:07:06;102208.99;;;0.83;64.50
77086;BME280;66014;53.134;18.006;2023-04-03T01:09:34;102205.96;;;0.81;64.58
77086;BME280;66014;53.134;18.006;2023-04-03T01:12:22;102203.27;;;0.79;64.84
77086;BME280;66014;53.134;18.006;2023-04-03T01:14:51;102202.98;;;0.78;64.72
77086;BME280;66014;53.134;18.006;2023-04-03T01:17:32;102207.72;;;0.77;64.92
77086;BME280;66014;53.134;18.006;2023-04-03T01:41:37;102221.77;;;0.66;65.50
77086;BME280;66014;53.134;18.006;2023-04-03T01:44:24;102223.23;;;0.64;65.57
77086;BME280;66014;53.134;18.006;2023-04-03T01:46:51;102225.75;;;0.63;65.47
77086;BME280;66014;53.134;18.006;2023-04-03T01:49:17;102221.93;;;0.63;65.64
77086;BME280;66014;53.134;18.006;2023-04-03T01:51:44;102224.34;;;0.60;65.64
77086;BME280;66014;53.134;18.006;2023-04-03T01:54:23;102226.80;;;0.59;65.75
77086;BME280;66014;53.134;18.006;2023-04-03T01:56:50;102228.77;;;0.59;65.63
77086;BME280;66014;53.134;18.006;2023-04-03T01:59:20;102230.05;;;0.57;65.72
77086;BME280;66014;53.134;18.006;2023-04-03T02:20:15;102231.55;;;0.63;66.10
77086;BME280;66014;53.134;18.006;2023-04-03T02:22:42;102228.36;;;0.63;65.92
77086;BME280;66014;53.134;18.006;2023-04-03T02:25:12;102229.91;;;0.64;66.03
77086;BME280;66014;53.134;18.006;2023-04-03T02:27:41;102229.44;;;0.63;65.85
77086;BME280;66014;53.134;18.006;2023-04-03T02:30:08;102231.31;;;0.60;66.19
77086;BME280;66014;53.134;18.006;2023-04-03T02:32:37;102233.34;;;0.58;66.07
77086;BME280;66014;53.134;18.006;2023-04-03T02:37:20;102237.04;;;0.57;66.34
77086;BME280;66014;53.134;18.006;2023-04-03T02:39:46;102241.48;;;0.53;66.42
77086;BME280;66014;53.134;18.006;2023-04-03T02:42:13;102243.27;;;0.51;66.19
77086;BME280;66014;53.134;18.006;2023-04-03T02:44:39;102248.91;;;0.50;66.62
77086;BME280;66014;53.134;18.006;2023-04-03T02:50:56;102251.56;;;0.49;66.67
77086;BME280;66014;53.134;18.006;2023-04-03T03:09:39;102259.26;;;0.42;66.92
77086;BME280;66014;53.134;18.006;2023-04-03T03:12:05;102261.21;;;0.38;67.13
77086;BME280;66014;53.134;18.006;2023-04-03T03:14:31;102263.57;;;0.36;67.16
77086;BME280;66014;53.134;18.006;2023-04-03T03:16:57;102261.09;;;0.34;67.27
77086;BME280;66014;53.134;18.006;2023-04-03T03:19:23;102261.59;;;0.30;67.16
77086;BME280;66014;53.134;18.006;2023-04-03T03:21:49;102265.35;;;0.29;67.32
77086;BME280;66014;53.134;18.006;2023-04-03T03:24:15;102263.17;;;0.26;67.45
77086;BME280;66014;53.134;18.006;2023-04-03T03:26:42;102264.98;;;0.25;67.45
77086;BME280;66014;53.134;18.006;2023-04-03T03:29:10;102267.25;;;0.25;67.15
77086;BME280;66014;53.134;18.006;2023-04-03T03:31:37;102265.35;;;0.25;67.33
77086;BME280;66014;53.134;18.006;2023-04-03T03:34:03;102268.18;;;0.24;67.48
77086;BME280;66014;53.134;18.006;2023-04-03T03:36:29;102269.48;;;0.22;67.55
77086;BME280;66014;53.134;18.006;2023-04-03T03:38:55;102275.79;;;0.22;67.63
77086;BME280;66014;53.134;18.006;2023-04-03T03:41:21;102277.23;;;0.21;67.54
77086;BME280;66014;53.134;18.006;2023-04-03T03:43:47;102277.30;;;0.19;67.60
77086;BME280;66014;53.134;18.006;2023-04-03T03:46:13;102277.67;;;0.19;67.59
77086;BME280;66014;53.134;18.006;2023-04-03T03:48:39;102280.33;;;0.18;67.58
77086;BME280;66014;53.134;18.006;2023-04-03T03:51:05;102280.52;;;0.18;67.67
77086;BME280;66014;53.134;18.006;2023-04-03T03:53:32;102283.96;;;0.19;67.57
77086;BME280;66014;53.134;18.006;2023-04-03T03:55:58;102285.48;;;0.20;67.41
77086;BME280;66014;53.134;18.006;2023-04-03T03:58:24;102287.40;;;0.20;67.46
77086;BME280;66014;53.134;18.006;2023-04-03T04:00:50;102292.13;;;0.20;67.57
77086;BME280;66014;53.134;18.006;2023-04-03T04:03:16;102292.69;;;0.19;67.70
77086;BME280;66014;53.134;18.006;2023-04-03T04:05:46;102294.25;;;0.19;67.80
77086;BME280;66014;53.134;18.006;2023-04-03T04:08:12;102293.60;;;0.18;67.72
77086;BME280;66014;53.134;18.006;2023-04-03T04:10:39;102295.02;;;0.17;67.80
77086;BME280;66014;53.134;18.006;2023-04-03T04:13:05;102300.98;;;0.17;67.82
77086;BME280;66014;53.134;18.006;2023-04-03T04:15:31;102303.29;;;0.16;67.76
77086;BME280;66014;53.134;18.006;2023-04-03T04:18:00;102301.45;;;0.15;67.92
77086;BME280;66014;53.134;18.006;2023-04-03T04:20:26;102307.23;;;0.14;67.76
77086;BME280;66014;53.134;18.006;2023-04-03T04:22:55;102310.56;;;0.14;68.00
77086;BME280;66014;53.134;18.006;2023-04-03T04:26:03;102312.96;;;0.15;67.95
77086;BME280;66014;53.134;18.006;2023-04-03T04:28:29;102311.45;;;0.17;67.99
77086;BME280;66014;53.134;18.006;2023-04-03T04:30:55;102313.64;;;0.19;67.99
77086;BME280;66014;53.134;18.006;2023-04-03T04:33:21;102312.91;;;0.19;67.81
77086;BME280;66014;53.134;18.006;2023-04-03T04:35:47;102315.31;;;0.20;67.83
77086;BME280;66014;53.134;18.006;2023-04-03T04:38:14;102315.61;;;0.21;67.87
77086;BME280;66014;53.134;18.006;2023-04-03T04:40:40;102313.23;;;0.20;67.63
77086;BME280;66014;53.134;18.006;2023-04-03T04:43:07;102313.25;;;0.19;67.82
77086;BME280;66014;53.134;18.006;2023-04-03T04:45:33;102311.84;;;0.20;67.72
77086;BME280;66014;53.134;18.006;2023-04-03T04:48:06;102318.96;;;0.21;67.80
77086;BME280;66014;53.134;18.006;2023-04-03T04:50:32;102317.59;;;0.20;67.83
77086;BME280;66014;53.134;18.006;2023-04-03T04:53:00;102319.70;;;0.20;68.10
77086;BME280;66014;53.134;18.006;2023-04-03T04:55:27;102322.80;;;0.20;67.79
77086;BME280;66014;53.134;18.006;2023-04-03T04:57:52;102327.58;;;0.23;67.80
77086;BME280;66014;53.134;18.006;2023-04-03T05:00:21;102333.84;;;0.27;67.96
77086;BME280;66014;53.134;18.006;2023-04-03T05:03:12;102336.55;;;0.33;67.66
77086;BME280;66014;53.134;18.006;2023-04-03T05:05:38;102335.61;;;0.38;67.78
77086;BME280;66014;53.134;18.006;2023-04-03T05:08:05;102336.80;;;0.42;67.48
77086;BME280;66014;53.134;18.006;2023-04-03T05:10:31;102339.80;;;0.49;67.48
77086;BME280;66014;53.134;18.006;2023-04-03T05:12:57;102341.83;;;0.61;67.29
77086;BME280;66014;53.134;18.006;2023-04-03T05:15:23;102339.64;;;0.70;67.11
77086;BME280;66014;53.134;18.006;2023-04-03T05:17:49;102341.71;;;0.73;66.85
77086;BME280;66014;53.134;18.006;2023-04-03T05:20:17;102343.46;;;0.78;66.79
77086;BME280;66014;53.134;18.006;2023-04-03T05:22:42;102344.36;;;0.84;66.75
77086;BME280;66014;53.134;18.006;2023-04-03T05:25:08;102346.63;;;0.95;66.61
77086;BME280;66014;53.134;18.006;2023-04-03T05:27:34;102342.48;;;0.97;66.34
77086;BME280;66014;53.134;18.006;2023-04-03T05:30:03;102343.39;;;1.00;66.22
77086;BME280;66014;53.134;18.006;2023-04-03T05:32:30;102345.73;;;1.19;66.08
77086;BME280;66014;53.134;18.006;2023-04-03T05:34:56;102341.98;;;1.55;65.40
77086;BME280;66014;53.134;18.006;2023-04-03T05:37:21;102342.67;;;1.91;64.62
77086;BME280;66014;53.134;18.006;2023-04-03T05:39:47;102345.02;;;2.28;63.99
77086;BME280;66014;53.134;18.006;2023-04-03T05:42:13;102347.27;;;2.66;63.42
77086;BME280;66014;53.134;18.006;2023-04-03T05:44:41;102341.52;;;3.02;62.60
77086;BME280;66014;53.134;18.006;2023-04-03T05:47:09;102345.45;;;3.39;61.94
77086;BME280;66014;53.134;18.006;2023-04-03T05:49:36;102342.15;;;3.79;61.33
77086;BME280;66014;53.134;18.006;2023-04-03T05:52:27;102339.63;;;4.16;60.29
77086;BME280;66014;53.134;18.006;2023-04-03T05:54:54;102340.83;;;4.52;59.53
77086;BME280;66014;53.134;18.006;2023-04-03T05:57:20;102343.02;;;4.86;59.01
77086;BME280;66014;53.134;18.006;2023-04-03T05:59:47;102342.41;;;5.21;58.39
77086;BME280;66014;53.134;18.006;2023-04-03T06:02:19;102341.69;;;5.42;57.78
77086;BME280;66014;53.134;18.006;2023-04-03T06:04:47;102348.47;;;5.58;57.10
77086;BME280;66014;53.134;18.006;2023-04-03T06:07:17;102346.73;;;6.06;56.15
77086;BME280;66014;53.134;18.006;2023-04-03T06:09:48;102344.90;;;6.29;56.07
77086;BME280;66014;53.134;18.006;2023-04-03T06:12:14;102346.79;;;6.20;56.54
77086;BME280;66014;53.134;18.006;2023-04-03T06:14:40;102348.90;;;6.69;55.24
77086;BME280;66014;53.134;18.006;2023-04-03T06:17:06;102353.52;;;7.15;54.12
77086;BME280;66014;53.134;18.006;2023-04-03T06:19:35;102354.80;;;6.80;54.27
77086;BME280;66014;53.134;18.006;2023-04-03T06:22:01;102351.88;;;6.50;53.69
77086;BME280;66014;53.134;18.006;2023-04-03T06:24:28;102355.34;;;6.79;53.73
77086;BME280;66014;53.134;18.006;2023-04-03T06:26:54;102360.43;;;7.01;52.66
77086;BME280;66014;53.134;18.006;2023-04-03T06:29:24;102359.91;;;7.77;52.11
77086;BME280;66014;53.134;18.006;2023-04-03T06:42:32;102372.59;;;9.13;49.08
77086;BME280;66014;53.134;18.006;2023-04-03T06:44:58;102372.42;;;9.32;49.09
77086;BME280;66014;53.134;18.006;2023-04-03T06:47:24;102376.60;;;9.92;48.12
77086;BME280;66014;53.134;18.006;2023-04-03T06:50:10;102377.34;;;9.86;47.46
77086;BME280;66014;53.134;18.006;2023-04-03T06:52:41;102376.62;;;10.40;46.48
77086;BME280;66014;53.134;18.006;2023-04-03T06:55:08;102381.64;;;10.38;45.00
77086;BME280;66014;53.134;18.006;2023-04-03T06:57:41;102384.23;;;10.76;45.32
77086;BME280;66014;53.134;18.006;2023-04-03T07:00:53;102384.21;;;10.41;44.49
77086;BME280;66014;53.134;18.006;2023-04-03T07:11:05;102393.70;;;9.04;44.47
77086;BME280;66014;53.134;18.006;2023-04-03T07:17:00;102402.95;;;8.20;46.15
77086;BME280;66014;53.134;18.006;2023-04-03T07:19:26;102404.20;;;7.93;46.03
77086;BME280;66014;53.134;18.006;2023-04-03T07:21:53;102413.77;;;7.70;46.43
77086;BME280;66014;53.134;18.006;2023-04-03T07:24:20;102415.70;;;7.52;45.80
77086;BME280;66014;53.134;18.006;2023-04-03T07:26:52;102413.54;;;7.39;45.60
77086;BME280;66014;53.134;18.006;2023-04-03T07:29:18;102417.46;;;7.57;45.48
77086;BME280;66014;53.134;18.006;2023-04-03T07:31:47;102421.23;;;7.70;44.72
77086;BME280;66014;53.134;18.006;2023-04-03T07:34:13;102422.42;;;7.45;44.31
77086;BME280;66014;53.134;18.006;2023-04-03T07:36:39;102420.24;;;7.27;44.79
77086;BME280;66014;53.134;18.006;2023-04-03T07:39:06;102419.53;;;7.01;45.98
77086;BME280;66014;53.134;18.006;2023-04-03T07:41:33;102418.50;;;7.01;45.89
77086;BME280;66014;53.134;18.006;2023-04-03T07:43:59;102420.77;;;6.73;46.20
77086;BME280;66014;53.134;18.006;2023-04-03T07:46:26;102422.36;;;6.68;46.22
77086;BME280;66014;53.134;18.006;2023-04-03T07:48:53;102423.13;;;7.63;45.68
77086;BME280;66014;53.134;18.006;2023-04-03T07:51:19;102419.98;;;8.75;43.79
77086;BME280;66014;53.134;18.006;2023-04-03T07:53:46;102420.23;;;9.96;42.51
77086;BME280;66014;53.134;18.006;2023-04-03T07:56:12;102417.85;;;10.58;41.45
77086;BME280;66014;53.134;18.006;2023-04-03T07:58:38;102415.95;;;10.31;38.39
77086;BME280;66014;53.134;18.006;2023-04-03T08:01:04;102423.27;;;9.92;37.97
77086;BME280;66014;53.134;18.006;2023-04-03T08:03:30;102426.92;;;9.39;39.70
77086;BME280;66014;53.134;18.006;2023-04-03T08:06:02;102418.55;;;8.88;39.13
77086;BME280;66014;53.134;18.006;2023-04-03T08:08:30;102422.17;;;8.59;39.58
77086;BME280;66014;53.134;18.006;2023-04-03T08:10:58;102426.11;;;8.25;40.51
77086;BME280;66014;53.134;18.006;2023-04-03T08:13:24;102424.39;;;8.47;40.08
77086;BME280;66014;53.134;18.006;2023-04-03T08:15:51;102429.54;;;8.27;40.11
77086;BME280;66014;53.134;18.006;2023-04-03T08:18:18;102433.32;;;8.21;39.89
77086;BME280;66014;53.134;18.006;2023-04-03T08:20:47;102434.55;;;7.87;39.76
77086;BME280;66014;53.134;18.006;2023-04-03T08:23:13;102432.05;;;7.90;39.43
77086;BME280;66014;53.134;18.006;2023-04-03T08:25:42;102433.19;;;8.16;39.44
77086;BME280;66014;53.134;18.006;2023-04-03T08:28:10;102431.70;;;8.51;38.27
77086;BME280;66014;53.134;18.006;2023-04-03T08:30:39;102429.68;;;9.42;37.65
77086;BME280;66014;53.134;18.006;2023-04-03T08:33:06;102429.02;;;10.11;36.68
77086;BME280;66014;53.134;18.006;2023-04-03T08:35:31;102433.39;;;10.88;36.64
77086;BME280;66014;53.134;18.006;2023-04-03T08:37:57;102433.59;;;11.65;33.56
77086;BME280;66014;53.134;18.006;2023-04-03T08:40:24;102433.11;;;12.10;33.94
77086;BME280;66014;53.134;18.006;2023-04-03T08:57:32;102436.17;;;14.37;29.17
77086;BME280;66014;53.134;18.006;2023-04-03T09:35:35;102426.35;;;15.93;25.88
77086;BME280;66014;53.134;18.006;2023-04-03T09:42:15;102429.17;;;15.43;26.20
77086;BME280;66014;53.134;18.006;2023-04-03T09:44:42;102425.13;;;15.26;26.39
77086;BME280;66014;53.134;18.006;2023-04-03T09:47:24;102422.55;;;15.12;27.15
77086;BME280;66014;53.134;18.006;2023-04-03T09:49:50;102425.55;;;15.47;26.49
77086;BME280;66014;53.134;18.006;2023-04-03T09:52:23;102428.97;;;15.53;25.16
77086;BME280;66014;53.134;18.006;2023-04-03T09:54:50;102423.97;;;14.74;26.12
77086;BME280;66014;53.134;18.006;2023-04-03T09:57:16;102430.94;;;13.87;25.92
77086;BME280;66014;53.134;18.006;2023-04-03T09:59:46;102427.41;;;13.22;27.31
77086;BME280;66014;53.134;18.006;2023-04-03T10:04:54;102420.30;;;13.52;27.23
77086;BME280;66014;53.134;18.006;2023-04-03T10:10:19;102423.14;;;14.35;26.28
77086;BME280;66014;53.134;18.006;2023-04-03T10:12:46;102419.59;;;14.67;26.47
77086;BME280;66014;53.134;18.006;2023-04-03T10:15:13;102420.73;;;14.86;26.26
77086;BME280;66014;53.134;18.006;2023-04-03T10:18:46;102424.95;;;15.23;26.07
77086;BME280;66014;53.134;18.006;2023-04-03T10:20:47;102424.69;;;15.15;25.83
77086;BME280;66014;53.134;18.006;2023-04-03T10:26:49;102421.95;;;14.71;25.88
77086;BME280;66014;53.134;18.006;2023-04-03T10:29:31;102420.36;;;14.31;26.86
77086;BME280;66014;53.134;18.006;2023-04-03T10:32:15;102421.09;;;13.60;26.35
77086;BME280;66014;53.134;18.006;2023-04-03T10:34:47;102415.27;;;13.40;27.18
77086;BME280;66014;53.134;18.006;2023-04-03T10:37:24;102417.23;;;13.84;27.16
77086;BME280;66014;53.134;18.006;2023-04-03T10:42:42;102416.23;;;14.58;26.53
77086;BME280;66014;53.134;18.006;2023-04-03T10:45:39;102411.60;;;14.99;26.20
77086;BME280;66014;53.134;18.006;2023-04-03T10:51:39;102426.22;;;14.67;26.35
77086;BME280;66014;53.134;18.006;2023-04-03T10:54:20;102417.64;;;13.90;26.43
77086;BME280;66014;53.134;18.006;2023-04-03T10:57:00;102415.56;;;13.41;27.05
77086;BME280;66014;53.134;18.006;2023-04-03T10:59:47;102419.64;;;13.53;26.92
77086;BME280;66014;53.134;18.006;2023-04-03T12:27:41;102375.54;;;10.41;29.41
77086;BME280;66014;53.134;18.006;2023-04-03T12:33:52;102363.40;;;10.57;29.79
77086;BME280;66014;53.134;18.006;2023-04-03T12:45:23;102366.17;;;10.18;30.97
77086;BME280;66014;53.134;18.006;2023-04-03T12:47:53;102365.52;;;9.97;30.93
77086;BME280;66014;53.134;18.006;2023-04-03T12:50:28;102361.20;;;9.80;31.23
77086;BME280;66014;53.134;18.006;2023-04-03T12:53:03;102359.27;;;9.75;31.33
77086;BME280;66014;53.134;18.006;2023-04-03T12:55:31;102360.30;;;9.76;31.10
77086;BME280;66014;53.134;18.006;2023-04-03T12:57:57;102357.20;;;9.71;30.97
77086;BME280;66014;53.134;18.006;2023-04-03T13:00:32;102359.58;;;9.68;31.01
77086;BME280;66014;53.134;18.006;2023-04-03T13:03:03;102355.16;;;9.78;31.13
77086;BME280;66014;53.134;18.006;2023-04-03T13:05:32;102355.36;;;10.16;29.96
77086;BME280;66014;53.134;18.006;2023-04-03T13:08:08;102360.20;;;10.12;30.08
77086;BME280;66014;53.134;18.006;2023-04-03T13:10:55;102356.98;;;9.97;29.97
77086;BME280;66014;53.134;18.006;2023-04-03T13:13:24;102353.04;;;10.24;30.23
77086;BME280;66014;53.134;18.006;2023-04-03T13:15:57;102348.99;;;10.79;30.03
77086;BME280;66014;53.134;18.006;2023-04-03T13:18:30;102360.02;;;10.83;29.94
77086;BME280;66014;53.134;18.006;2023-04-03T13:21:18;102362.48;;;10.73;29.66
77086;BME280;66014;53.134;18.006;2023-04-03T13:23:46;102354.50;;;10.63;29.99
77086;BME280;66014;53.134;18.006;2023-04-03T13:26:17;102347.77;;;10.65;29.95
77086;BME280;66014;53.134;18.006;2023-04-03T13:28:45;102343.20;;;11.22;29.53
77086;BME280;66014;53.134;18.006;2023-04-03T13:33:52;102332.15;;;11.09;30.02
77086;BME280;66014;53.134;18.006;2023-04-03T13:36:30;102331.66;;;10.90;30.18
77086;BME280;66014;53.134;18.006;2023-04-03T13:38:59;102331.54;;;10.64;30.30
77086;BME280;66014;53.134;18.006;2023-04-03T13:41:35;102335.36;;;10.40;30.06
77086;BME280;66014;53.134;18.006;2023-04-03T13:44:35;102343.58;;;10.03;30.38
77086;BME280;66014;53.134;18.006;2023-04-03T13:49:41;102335.94;;;10.03;31.25
77086;BME280;66014;53.134;18.006;2023-04-03T13:52:26;102339.05;;;10.18;31.41
77086;BME280;66014;53.134;18.006;2023-04-03T13:54:59;102338.73;;;10.14;31.50
77086;BME280;66014;53.134;18.006;2023-04-03T13:57:26;102341.16;;;9.88;31.40
77086;BME280;66014;53.134;18.006;2023-04-03T13:59:55;102340.49;;;9.44;31.91
77086;BME280;66014;53.134;18.006;2023-04-03T14:02:29;102343.25;;;9.12;32.54
77086;BME280;66014;53.134;18.006;2023-04-03T14:04:59;102342.01;;;8.89;33.00
77086;BME280;66014;53.134;18.006;2023-04-03T14:07:28;102338.69;;;8.76;33.35
77086;BME280;66014;53.134;18.006;2023-04-03T14:09:55;102343.02;;;8.59;32.81
77086;BME280;66014;53.134;18.006;2023-04-03T14:12:26;102336.85;;;8.63;33.19
77086;BME280;66014;53.134;18.006;2023-04-03T14:14:54;102331.00;;;8.83;33.32
77086;BME280;66014;53.134;18.006;2023-04-03T14:17:24;102324.45;;;9.06;33.28
77086;BME280;66014;53.134;18.006;2023-04-03T14:19:53;102323.41;;;9.37;32.83
77086;BME280;66014;53.134;18.006;2023-04-03T14:22:26;102319.32;;;9.37;32.66
77086;BME280;66014;53.134;18.006;2023-04-03T14:24:55;102327.94;;;9.23;33.29
77086;BME280;66014;53.134;18.006;2023-04-03T14:27:30;102328.35;;;9.04;33.73
77086;BME280;66014;53.134;18.006;2023-04-03T14:30:14;102329.11;;;8.80;34.45
77086;BME280;66014;53.134;18.006;2023-04-03T14:32:41;102336.02;;;8.56;35.09
77086;BME280;66014;53.134;18.006;2023-04-03T14:35:08;102339.22;;;8.39;35.57
77086;BME280;66014;53.134;18.006;2023-04-03T14:37:34;102339.79;;;8.16;35.70
77086;BME280;66014;53.134;18.006;2023-04-03T14:40:03;102341.91;;;7.96;35.75
77086;BME280;66014;53.134;18.006;2023-04-03T14:42:34;102337.16;;;7.83;36.18
77086;BME280;66014;53.134;18.006;2023-04-03T14:45:03;102335.20;;;7.72;36.54
77086;BME280;66014;53.134;18.006;2023-04-03T14:47:32;102337.98;;;7.59;36.58
77086;BME280;66014;53.134;18.006;2023-04-03T14:50:04;102342.20;;;7.52;36.73
77086;BME280;66014;53.134;18.006;2023-04-03T14:52:34;102340.52;;;7.45;36.97
77086;BME280;66014;53.134;18.006;2023-04-03T14:55:04;102335.57;;;7.35;36.88
77086;BME280;66014;53.134;18.006;2023-04-03T14:57:31;102334.58;;;7.43;36.86
77086;BME280;66014;53.134;18.006;2023-04-03T14:59:58;102333.92;;;7.61;36.65
77086;BME280;66014;53.134;18.006;2023-04-03T15:02:29;102325.47;;;7.76;36.54
77086;BME280;66014;53.134;18.006;2023-04-03T15:04:57;102331.77;;;7.97;36.43
77086;BME280;66014;53.134;18.006;2023-04-03T15:07:29;102327.17;;;8.04;35.76
77086;BME280;66014;53.134;18.006;2023-04-03T15:12:44;102334.27;;;7.79;35.49
77086;BME280;66014;53.134;18.006;2023-04-03T15:15:10;102327.38;;;7.63;35.74
77086;BME280;66014;53.134;18.006;2023-04-03T15:17:55;102330.95;;;7.47;36.06
77086;BME280;66014;53.134;18.006;2023-04-03T15:20:31;102331.04;;;7.27;36.40
77086;BME280;66014;53.134;18.006;2023-04-03T15:23:00;102331.80;;;7.13;36.77
77086;BME280;66014;53.134;18.006;2023-04-03T15:25:32;102331.79;;;6.95;36.91
77086;BME280;66014;53.134;18.006;2023-04-03T15:27:58;102330.40;;;6.85;36.80
77086;BME280;66014;53.134;18.006;2023-04-03T15:30:26;102326.22;;;6.86;36.78
77086;BME280;66014;53.134;18.006;2023-04-03T15:32:53;102323.40;;;6.89;36.71
77086;BME280;66014;53.134;18.006;2023-04-03T15:35:20;102328.90;;;6.93;36.71
77086;BME280;66014;53.134;18.006;2023-04-03T15:38:01;102326.66;;;7.02;36.73
77086;BME280;66014;53.134;18.006;2023-04-03T16:12:35;102338.56;;;5.79;38.71
77086;BME280;66014;53.134;18.006;2023-04-03T16:15:02;102339.59;;;5.75;38.91
77086;BME280;66014;53.134;18.006;2023-04-03T16:17:31;102337.50;;;5.72;38.97
77086;BME280;66014;53.134;18.006;2023-04-03T16:19:59;102339.85;;;5.71;39.11
77086;BME280;66014;53.134;18.006;2023-04-03T16:22:27;102336.39;;;5.68;38.50
77086;BME280;66014;53.134;18.006;2023-04-03T16:24:54;102344.50;;;5.65;38.23
77086;BME280;66014;53.134;18.006;2023-04-03T16:27:23;102343.03;;;5.63;38.19
77086;BME280;66014;53.134;18.006;2023-04-03T16:30:11;102347.11;;;5.65;37.98
77086;BME280;66014;53.134;18.006;2023-04-03T16:32:40;102344.59;;;5.64;37.79
77086;BME280;66014;53.134;18.006;2023-04-03T16:35:07;102343.23;;;5.58;37.83
77086;BME280;66014;53.134;18.006;2023-04-03T16:37:35;102347.09;;;5.48;38.10
77086;BME280;66014;53.134;18.006;2023-04-03T16:40:05;102349.73;;;5.40;38.58
77086;BME280;66014;53.134;18.006;2023-04-03T16:42:32;102357.73;;;5.34;39.28
77086;BME280;66014;53.134;18.006;2023-04-03T16:44:58;102360.03;;;5.26;39.80
77086;BME280;66014;53.134;18.006;2023-04-03T16:47:28;102363.82;;;5.20;40.26
77086;BME280;66014;53.134;18.006;2023-04-03T16:49:54;102364.77;;;5.08;40.92
77086;BME280;66014;53.134;18.006;2023-04-03T16:52:20;102368.41;;;4.95;41.37
77086;BME280;66014;53.134;18.006;2023-04-03T16:54:46;102365.12;;;4.84;41.94
77086;BME280;66014;53.134;18.006;2023-04-03T16:57:15;102371.34;;;4.72;42.26
77086;BME280;66014;53.134;18.006;2023-04-03T16:59:41;102369.77;;;4.61;42.49
77086;BME280;66014;53.134;18.006;2023-04-03T17:02:07;102368.92;;;4.53;42.94
77086;BME280;66014;53.134;18.006;2023-04-03T17:04:33;102371.48;;;4.45;43.33
77086;BME280;66014;53.134;18.006;2023-04-03T17:07:00;102368.09;;;4.41;43.05
77086;BME280;66014;53.134;18.006;2023-04-03T17:09:32;102374.29;;;4.40;43.35
77086;BME280;66014;53.134;18.006;2023-04-03T17:11:58;102373.73;;;4.38;43.26
77086;BME280;66014;53.134;18.006;2023-04-03T17:14:24;102375.31;;;4.35;43.48
77086;BME280;66014;53.134;18.006;2023-04-03T17:16:50;102378.50;;;4.32;43.72
77086;BME280;66014;53.134;18.006;2023-04-03T17:19:16;102376.64;;;4.28;43.72
77086;BME280;66014;53.134;18.006;2023-04-03T17:21:43;102382.44;;;4.26;44.11
77086;BME280;66014;53.134;18.006;2023-04-03T17:24:10;102381.97;;;4.22;44.22
77086;BME280;66014;53.134;18.006;2023-04-03T17:26:39;102385.63;;;4.17;44.37
77086;BME280;66014;53.134;18.006;2023-04-03T17:29:07;102382.37;;;4.13;44.73
77086;BME280;66014;53.134;18.006;2023-04-03T17:31:33;102383.73;;;4.08;44.92
77086;BME280;66014;53.134;18.006;2023-04-03T17:33:59;102385.79;;;4.03;44.98
77086;BME280;66014;53.134;18.006;2023-04-03T17:36:29;102384.60;;;3.99;45.13
77086;BME280;66014;53.134;18.006;2023-04-03T17:38:55;102385.82;;;3.97;45.41
77086;BME280;66014;53.134;18.006;2023-04-03T17:41:21;102385.59;;;3.95;45.52
77086;BME280;66014;53.134;18.006;2023-04-03T17:43:49;102386.48;;;3.92;45.73
77086;BME280;66014;53.134;18.006;2023-04-03T17:46:15;102391.33;;;3.90;45.85
77086;BME280;66014;53.134;18.006;2023-04-03T17:48:42;102394.92;;;3.89;45.93
77086;BME280;66014;53.134;18.006;2023-04-03T17:51:14;102392.45;;;3.89;46.16
77086;BME280;66014;53.134;18.006;2023-04-03T17:53:41;102396.36;;;3.91;46.21